sensor_id;sensor_type;location;lat;lon;timestamp;P1;durP1;ratioP1;P2;durP2;ratioP2
13014;SDS011;6573;57.696;11.950;2023-02-28T00:01:54;7.97;;;4.63;;
13014;SDS011;6573;57.696;11.950;2023-02-28T00:04:23;8.43;;;5.40;;
13014;SDS011;6573;57.696;11.950;2023-02-28T00:06:52;9.07;;;5.47;;
13014;SDS011;6573;57.696;11.950;2023-02-28T00:09:22;8.57;;;5.43;;
13014;SDS011;6573;57.696;11.950;2023-02-28T00:11:51;9.83;;;5.40;;
13014;SDS011;6573;57.696;11.950;2023-02-28T00:14:19;9.70;;;5.20;;
13014;SDS011;6573;57.696;11.950;2023-02-28T00:16:50;10.30;;;5.40;;
13014;SDS011;6573;57.696;11.950;2023-02-28T00:19:19;12.47;;;6.23;;
13014;SDS011;6573;57.696;11.950;2023-02-28T00:21:50;10.47;;;5.93;;
13014;SDS011;6573;57.696;11.950;2023-02-28T00:24:22;10.87;;;5.60;;
13014;SDS011;6573;57.696;11.950;2023-02-28T00:26:50;11.40;;;5.47;;
13014;SDS011;6573;57.696;11.950;2023-02-28T00:29:19;11.23;;;6.00;;
13014;SDS011;6573;57.696;11.950;2023-02-28T00:31:50;13.10;;;6.30;;
13014;SDS011;6573;57.696;11.950;2023-02-28T00:34:18;11.33;;;5.90;;
13014;SDS011;6573;57.696;11.950;2023-02-28T00:36:46;10.13;;;5.70;;
13014;SDS011;6573;57.696;11.950;2023-02-28T00:39:16;9.57;;;5.53;;
13014;SDS011;6573;57.696;11.950;2023-02-28T00:41:48;9.70;;;5.47;;
13014;SDS011;6573;57.696;11.950;2023-02-28T00:44:19;14.63;;;5.70;;
13014;SDS011;6573;57.696;11.950;2023-02-28T00:46:47;11.67;;;5.43;;
13014;SDS011;6573;57.696;11.950;2023-02-28T00:49:16;8.57;;;5.70;;
13014;SDS011;6573;57.696;11.950;2023-02-28T00:51:47;9.80;;;5.50;;
13014;SDS011;6573;57.696;11.950;2023-02-28T00:54:17;13.53;;;6.20;;
13014;SDS011;6573;57.696;11.950;2023-02-28T00:56:45;13.60;;;6.00;;
13014;SDS011;6573;57.696;11.950;2023-02-28T00:59:15;8.47;;;4.97;;
13014;SDS011;6573;57.696;11.950;2023-02-28T01:01:45;12.53;;;5.20;;
13014;SDS011;6573;57.696;11.950;2023-02-28T01:04:13;10.77;;;5.00;;
13014;SDS011;6573;57.696;11.950;2023-02-28T01:06:47;14.27;;;5.10;;
13014;SDS011;6573;57.696;11.950;2023-02-28T01:09:17;10.83;;;5.57;;
13014;SDS011;6573;57.696;11.950;2023-02-28T01:11:45;9.63;;;5.13;;
13014;SDS011;6573;57.696;11.950;2023-02-28T01:14:15;9.90;;;4.80;;
13014;SDS011;6573;57.696;11.950;2023-02-28T01:16:45;11.10;;;5.30;;
13014;SDS011;6573;57.696;11.950;2023-02-28T01:19:13;9.30;;;4.97;;
13014;SDS011;6573;57.696;11.950;2023-02-28T01:21:43;9.07;;;5.10;;
13014;SDS011;6573;57.696;11.950;2023-02-28T01:24:13;10.97;;;4.93;;
13014;SDS011;6573;57.696;11.950;2023-02-28T01:26:41;13.17;;;6.00;;
13014;SDS011;6573;57.696;11.950;2023-02-28T01:29:12;9.77;;;4.60;;
13014;SDS011;6573;57.696;11.950;2023-02-28T01:31:41;11.00;;;5.00;;
13014;SDS011;6573;57.696;11.950;2023-02-28T01:34:10;5.83;;;4.80;;
13014;SDS011;6573;57.696;11.950;2023-02-28T01:36:38;8.03;;;4.60;;
13014;SDS011;6573;57.696;11.950;2023-02-28T01:39:06;8.43;;;5.13;;
13014;SDS011;6573;57.696;11.950;2023-02-28T01:41:34;7.80;;;4.67;;
13014;SDS011;6573;57.696;11.950;2023-02-28T01:44:04;6.60;;;4.53;;
13014;SDS011;6573;57.696;11.950;2023-02-28T01:46:34;7.70;;;4.70;;
13014;SDS011;6573;57.696;11.950;2023-02-28T01:49:06;11.03;;;5.10;;
13014;SDS011;6573;57.696;11.950;2023-02-28T01:51:40;7.43;;;4.60;;
13014;SDS011;6573;57.696;11.950;2023-02-28T01:54:18;9.33;;;4.37;;
13014;SDS011;6573;57.696;11.950;2023-02-28T01:56:51;7.47;;;5.07;;
13014;SDS011;6573;57.696;11.950;2023-02-28T01:59:26;7.23;;;4.87;;
13014;SDS011;6573;57.696;11.950;2023-02-28T02:01:59;9.47;;;5.03;;
13014;SDS011;6573;57.696;11.950;2023-02-28T02:04:31;8.90;;;4.90;;
13014;SDS011;6573;57.696;11.950;2023-02-28T02:07:05;9.20;;;5.20;;
13014;SDS011;6573;57.696;11.950;2023-02-28T02:09:34;9.10;;;4.70;;
13014;SDS011;6573;57.696;11.950;2023-02-28T02:12:02;6.40;;;4.20;;
13014;SDS011;6573;57.696;11.950;2023-02-28T02:14:49;9.30;;;5.17;;
13014;SDS011;6573;57.696;11.950;2023-02-28T02:17:30;7.03;;;4.67;;
13014;SDS011;6573;57.696;11.950;2023-02-28T02:25:58;8.00;;;5.07;;
13014;SDS011;6573;57.696;11.950;2023-02-28T02:28:57;7.17;;;4.70;;
13014;SDS011;6573;57.696;11.950;2023-02-28T02:31:51;12.67;;;5.17;;
13014;SDS011;6573;57.696;11.950;2023-02-28T02:34:39;8.60;;;4.90;;
13014;SDS011;6573;57.696;11.950;2023-02-28T02:37:13;9.53;;;4.93;;
13014;SDS011;6573;57.696;11.950;2023-02-28T02:39:51;8.47;;;4.70;;
13014;SDS011;6573;57.696;11.950;2023-02-28T02:42:27;11.20;;;5.10;;
13014;SDS011;6573;57.696;11.950;2023-02-28T02:45:00;10.07;;;5.50;;
13014;SDS011;6573;57.696;11.950;2023-02-28T02:47:33;9.77;;;4.77;;
13014;SDS011;6573;57.696;11.950;2023-02-28T02:50:06;6.77;;;4.40;;
13014;SDS011;6573;57.696;11.950;2023-02-28T02:52:40;7.93;;;4.27;;
13014;SDS011;6573;57.696;11.950;2023-02-28T02:55:13;7.13;;;4.27;;
13014;SDS011;6573;57.696;11.950;2023-02-28T02:57:44;9.80;;;4.60;;
13014;SDS011;6573;57.696;11.950;2023-02-28T03:00:15;6.17;;;4.63;;
13014;SDS011;6573;57.696;11.950;2023-02-28T03:02:46;10.30;;;4.80;;
13014;SDS011;6573;57.696;11.950;2023-02-28T03:05:19;6.10;;;4.37;;
13014;SDS011;6573;57.696;11.950;2023-02-28T03:07:51;9.10;;;5.10;;
13014;SDS011;6573;57.696;11.950;2023-02-28T03:10:33;9.17;;;4.50;;
13014;SDS011;6573;57.696;11.950;2023-02-28T03:13:11;7.57;;;4.30;;
13014;SDS011;6573;57.696;11.950;2023-02-28T03:15:58;7.70;;;4.20;;
13014;SDS011;6573;57.696;11.950;2023-02-28T03:18:42;6.23;;;4.20;;
13014;SDS011;6573;57.696;11.950;2023-02-28T03:21:23;5.30;;;3.93;;
13014;SDS011;6573;57.696;11.950;2023-02-28T03:23:59;9.13;;;4.27;;
13014;SDS011;6573;57.696;11.950;2023-02-28T03:26:33;7.03;;;4.67;;
13014;SDS011;6573;57.696;11.950;2023-02-28T03:29:08;7.00;;;4.60;;
13014;SDS011;6573;57.696;11.950;2023-02-28T03:31:44;8.43;;;4.33;;
13014;SDS011;6573;57.696;11.950;2023-02-28T03:34:19;8.00;;;4.40;;
13014;SDS011;6573;57.696;11.950;2023-02-28T03:36:53;7.50;;;4.23;;
13014;SDS011;6573;57.696;11.950;2023-02-28T03:39:28;8.23;;;4.40;;
13014;SDS011;6573;57.696;11.950;2023-02-28T03:42:04;6.87;;;3.97;;
13014;SDS011;6573;57.696;11.950;2023-02-28T03:44:38;8.27;;;4.57;;
13014;SDS011;6573;57.696;11.950;2023-02-28T03:47:09;10.83;;;4.07;;
13014;SDS011;6573;57.696;11.950;2023-02-28T03:49:42;7.27;;;4.00;;
13014;SDS011;6573;57.696;11.950;2023-02-28T03:52:16;5.87;;;4.07;;
13014;SDS011;6573;57.696;11.950;2023-02-28T03:54:47;4.43;;;3.47;;
13014;SDS011;6573;57.696;11.950;2023-02-28T03:57:22;7.63;;;3.33;;
13014;SDS011;6573;57.696;11.950;2023-02-28T03:59:56;7.07;;;3.73;;
13014;SDS011;6573;57.696;11.950;2023-02-28T04:02:27;8.47;;;3.73;;
13014;SDS011;6573;57.696;11.950;2023-02-28T04:04:55;6.37;;;3.77;;
13014;SDS011;6573;57.696;11.950;2023-02-28T04:07:29;7.90;;;3.80;;
13014;SDS011;6573;57.696;11.950;2023-02-28T04:09:59;6.50;;;3.70;;
13014;SDS011;6573;57.696;11.950;2023-02-28T04:12:27;8.03;;;4.23;;
13014;SDS011;6573;57.696;11.950;2023-02-28T04:14:56;9.83;;;5.07;;
13014;SDS011;6573;57.696;11.950;2023-02-28T04:17:24;10.37;;;5.20;;
13014;SDS011;6573;57.696;11.950;2023-02-28T04:19:52;10.90;;;4.83;;
13014;SDS011;6573;57.696;11.950;2023-02-28T04:22:23;7.77;;;4.80;;
13014;SDS011;6573;57.696;11.950;2023-02-28T04:24:53;7.00;;;4.70;;
13014;SDS011;6573;57.696;11.950;2023-02-28T04:27:22;8.47;;;4.50;;
13014;SDS011;6573;57.696;11.950;2023-02-28T04:29:50;7.50;;;4.30;;
13014;SDS011;6573;57.696;11.950;2023-02-28T04:32:18;9.40;;;4.40;;
13014;SDS011;6573;57.696;11.950;2023-02-28T04:34:47;6.20;;;4.03;;
13014;SDS011;6573;57.696;11.950;2023-02-28T04:37:15;6.87;;;4.00;;
13014;SDS011;6573;57.696;11.950;2023-02-28T04:39:45;7.20;;;3.87;;
13014;SDS011;6573;57.696;11.950;2023-02-28T04:42:14;8.80;;;4.47;;
13014;SDS011;6573;57.696;11.950;2023-02-28T04:44:42;8.37;;;4.07;;
13014;SDS011;6573;57.696;11.950;2023-02-28T04:47:11;8.77;;;4.37;;
13014;SDS011;6573;57.696;11.950;2023-02-28T04:49:39;6.63;;;4.27;;
13014;SDS011;6573;57.696;11.950;2023-02-28T04:52:08;7.80;;;4.03;;
13014;SDS011;6573;57.696;11.950;2023-02-28T04:54:36;58.00;;;33.20;;
13014;SDS011;6573;57.696;11.950;2023-02-28T04:57:07;9.37;;;4.83;;
13014;SDS011;6573;57.696;11.950;2023-02-28T04:59:36;7.20;;;3.80;;
13014;SDS011;6573;57.696;11.950;2023-02-28T05:02:05;8.37;;;4.40;;
13014;SDS011;6573;57.696;11.950;2023-02-28T05:04:34;6.83;;;3.50;;
13014;SDS011;6573;57.696;11.950;2023-02-28T05:07:03;7.37;;;4.10;;
13014;SDS011;6573;57.696;11.950;2023-02-28T05:09:31;9.90;;;3.73;;
13014;SDS011;6573;57.696;11.950;2023-02-28T05:12:01;6.30;;;4.00;;
13014;SDS011;6573;57.696;11.950;2023-02-28T05:14:31;6.77;;;3.83;;
13014;SDS011;6573;57.696;11.950;2023-02-28T05:16:59;9.43;;;4.23;;
13014;SDS011;6573;57.696;11.950;2023-02-28T05:19:28;9.67;;;4.03;;
13014;SDS011;6573;57.696;11.950;2023-02-28T05:21:58;8.20;;;3.90;;
13014;SDS011;6573;57.696;11.950;2023-02-28T05:24:26;7.97;;;4.07;;
13014;SDS011;6573;57.696;11.950;2023-02-28T05:26:55;8.53;;;4.30;;
13014;SDS011;6573;57.696;11.950;2023-02-28T05:29:24;9.33;;;4.50;;
13014;SDS011;6573;57.696;11.950;2023-02-28T05:31:59;8.30;;;4.37;;
13014;SDS011;6573;57.696;11.950;2023-02-28T05:34:27;7.37;;;4.10;;
13014;SDS011;6573;57.696;11.950;2023-02-28T05:36:56;6.90;;;4.03;;
13014;SDS011;6573;57.696;11.950;2023-02-28T05:39:25;5.00;;;3.80;;
13014;SDS011;6573;57.696;11.950;2023-02-28T05:41:59;10.43;;;4.63;;
13014;SDS011;6573;57.696;11.950;2023-02-28T05:44:27;5.03;;;3.70;;
13014;SDS011;6573;57.696;11.950;2023-02-28T05:46:57;10.97;;;3.90;;
13014;SDS011;6573;57.696;11.950;2023-02-28T05:49:26;8.50;;;4.07;;
13014;SDS011;6573;57.696;11.950;2023-02-28T05:51:58;7.67;;;3.60;;
13014;SDS011;6573;57.696;11.950;2023-02-28T05:54:27;5.63;;;3.67;;
13014;SDS011;6573;57.696;11.950;2023-02-28T05:56:58;7.33;;;3.90;;
13014;SDS011;6573;57.696;11.950;2023-02-28T05:59:38;7.00;;;4.10;;
13014;SDS011;6573;57.696;11.950;2023-02-28T06:02:08;8.07;;;3.43;;
13014;SDS011;6573;57.696;11.950;2023-02-28T06:04:40;9.67;;;4.07;;
13014;SDS011;6573;57.696;11.950;2023-02-28T06:07:11;9.37;;;4.00;;
13014;SDS011;6573;57.696;11.950;2023-02-28T06:09:40;10.63;;;4.63;;
13014;SDS011;6573;57.696;11.950;2023-02-28T06:12:09;15.70;;;5.00;;
13014;SDS011;6573;57.696;11.950;2023-02-28T06:14:42;10.67;;;4.50;;
13014;SDS011;6573;57.696;11.950;2023-02-28T06:17:12;14.13;;;4.30;;
13014;SDS011;6573;57.696;11.950;2023-02-28T06:19:41;19.57;;;4.63;;
13014;SDS011;6573;57.696;11.950;2023-02-28T06:22:12;14.57;;;4.50;;
13014;SDS011;6573;57.696;11.950;2023-02-28T06:24:40;11.03;;;3.90;;
13014;SDS011;6573;57.696;11.950;2023-02-28T06:27:09;12.47;;;4.70;;
13014;SDS011;6573;57.696;11.950;2023-02-28T06:29:37;13.23;;;4.90;;
13014;SDS011;6573;57.696;11.950;2023-02-28T06:32:08;13.70;;;4.60;;
13014;SDS011;6573;57.696;11.950;2023-02-28T06:34:38;10.93;;;4.60;;
13014;SDS011;6573;57.696;11.950;2023-02-28T06:37:06;9.40;;;4.43;;
13014;SDS011;6573;57.696;11.950;2023-02-28T06:39:35;13.57;;;5.07;;
13014;SDS011;6573;57.696;11.950;2023-02-28T06:42:03;14.73;;;4.60;;
13014;SDS011;6573;57.696;11.950;2023-02-28T06:44:32;17.97;;;5.23;;
13014;SDS011;6573;57.696;11.950;2023-02-28T06:47:02;12.60;;;4.63;;
13014;SDS011;6573;57.696;11.950;2023-02-28T06:49:32;15.97;;;4.70;;
13014;SDS011;6573;57.696;11.950;2023-02-28T06:52:03;16.07;;;4.10;;
13014;SDS011;6573;57.696;11.950;2023-02-28T06:54:32;12.20;;;4.47;;
13014;SDS011;6573;57.696;11.950;2023-02-28T06:57:01;19.40;;;5.17;;
13014;SDS011;6573;57.696;11.950;2023-02-28T06:59:29;10.63;;;3.97;;
13014;SDS011;6573;57.696;11.950;2023-02-28T07:01:57;12.53;;;4.10;;
13014;SDS011;6573;57.696;11.950;2023-02-28T07:04:26;6.27;;;3.50;;
13014;SDS011;6573;57.696;11.950;2023-02-28T07:06:55;14.63;;;4.30;;
13014;SDS011;6573;57.696;11.950;2023-02-28T07:09:26;9.90;;;3.70;;
13014;SDS011;6573;57.696;11.950;2023-02-28T07:11:56;12.20;;;4.23;;
13014;SDS011;6573;57.696;11.950;2023-02-28T07:14:25;9.97;;;3.70;;
13014;SDS011;6573;57.696;11.950;2023-02-28T07:16:54;9.13;;;4.07;;
13014;SDS011;6573;57.696;11.950;2023-02-28T07:19:22;7.87;;;5.57;;
13014;SDS011;6573;57.696;11.950;2023-02-28T07:21:51;11.27;;;6.80;;
13014;SDS011;6573;57.696;11.950;2023-02-28T07:24:19;14.83;;;7.70;;
13014;SDS011;6573;57.696;11.950;2023-02-28T07:26:51;25.10;;;9.70;;
13014;SDS011;6573;57.696;11.950;2023-02-28T07:29:19;103.03;;;12.00;;
13014;SDS011;6573;57.696;11.950;2023-02-28T07:31:48;107.20;;;11.73;;
13014;SDS011;6573;57.696;11.950;2023-02-28T07:34:17;123.30;;;13.37;;
13014;SDS011;6573;57.696;11.950;2023-02-28T07:36:46;114.23;;;14.57;;
13014;SDS011;6573;57.696;11.950;2023-02-28T07:39:20;189.37;;;14.40;;
13014;SDS011;6573;57.696;11.950;2023-02-28T07:41:51;91.60;;;14.67;;
13014;SDS011;6573;57.696;11.950;2023-02-28T07:44:19;75.80;;;13.73;;
13014;SDS011;6573;57.696;11.950;2023-02-28T07:46:47;110.13;;;13.00;;
13014;SDS011;6573;57.696;11.950;2023-02-28T07:49:16;113.10;;;14.47;;
13014;SDS011;6573;57.696;11.950;2023-02-28T07:51:45;83.40;;;16.77;;
13014;SDS011;6573;57.696;11.950;2023-02-28T07:54:14;94.07;;;16.70;;
13014;SDS011;6573;57.696;11.950;2023-02-28T07:56:43;89.77;;;14.47;;
13014;SDS011;6573;57.696;11.950;2023-02-28T07:59:12;82.80;;;14.47;;
13014;SDS011;6573;57.696;11.950;2023-02-28T08:01:41;136.03;;;16.40;;
13014;SDS011;6573;57.696;11.950;2023-02-28T08:04:11;126.70;;;16.67;;
13014;SDS011;6573;57.696;11.950;2023-02-28T08:06:39;161.47;;;15.53;;
13014;SDS011;6573;57.696;11.950;2023-02-28T08:09:08;205.33;;;15.43;;
13014;SDS011;6573;57.696;11.950;2023-02-28T08:11:38;134.83;;;14.53;;
13014;SDS011;6573;57.696;11.950;2023-02-28T08:14:06;77.03;;;13.87;;
13014;SDS011;6573;57.696;11.950;2023-02-28T08:16:36;59.47;;;13.20;;
13014;SDS011;6573;57.696;11.950;2023-02-28T08:19:05;101.90;;;13.30;;
13014;SDS011;6573;57.696;11.950;2023-02-28T08:21:34;31.20;;;11.33;;
13014;SDS011;6573;57.696;11.950;2023-02-28T08:24:02;79.57;;;12.03;;
13014;SDS011;6573;57.696;11.950;2023-02-28T08:26:32;51.80;;;12.93;;
13014;SDS011;6573;57.696;11.950;2023-02-28T08:29:01;36.30;;;12.20;;
13014;SDS011;6573;57.696;11.950;2023-02-28T08:31:29;22.33;;;9.73;;
13014;SDS011;6573;57.696;11.950;2023-02-28T08:33:59;17.57;;;9.33;;
13014;SDS011;6573;57.696;11.950;2023-02-28T08:36:28;25.90;;;11.53;;
13014;SDS011;6573;57.696;11.950;2023-02-28T08:38:57;28.13;;;9.83;;
13014;SDS011;6573;57.696;11.950;2023-02-28T08:41:26;25.80;;;9.93;;
13014;SDS011;6573;57.696;11.950;2023-02-28T08:43:55;18.47;;;10.47;;
13014;SDS011;6573;57.696;11.950;2023-02-28T08:46:24;22.77;;;9.77;;
13014;SDS011;6573;57.696;11.950;2023-02-28T08:48:52;22.20;;;10.83;;
13014;SDS011;6573;57.696;11.950;2023-02-28T08:51:22;16.57;;;10.00;;
13014;SDS011;6573;57.696;11.950;2023-02-28T08:53:54;16.20;;;10.20;;
13014;SDS011;6573;57.696;11.950;2023-02-28T08:56:23;16.63;;;9.63;;
13014;SDS011;6573;57.696;11.950;2023-02-28T08:58:53;12.60;;;8.93;;
13014;SDS011;6573;57.696;11.950;2023-02-28T09:01:24;15.23;;;9.60;;
13014;SDS011;6573;57.696;11.950;2023-02-28T09:03:55;27.67;;;10.77;;
13014;SDS011;6573;57.696;11.950;2023-02-28T09:06:27;15.53;;;9.90;;
13014;SDS011;6573;57.696;11.950;2023-02-28T09:08:56;13.17;;;8.70;;
13014;SDS011;6573;57.696;11.950;2023-02-28T09:11:27;21.83;;;9.87;;
13014;SDS011;6573;57.696;11.950;2023-02-28T09:13:57;15.97;;;9.57;;
13014;SDS011;6573;57.696;11.950;2023-02-28T09:16:26;30.60;;;13.37;;
13014;SDS011;6573;57.696;11.950;2023-02-28T09:18:55;17.33;;;10.83;;
13014;SDS011;6573;57.696;11.950;2023-02-28T09:21:25;15.27;;;10.70;;
13014;SDS011;6573;57.696;11.950;2023-02-28T09:23:55;13.73;;;9.17;;
13014;SDS011;6573;57.696;11.950;2023-02-28T09:26:24;16.83;;;10.20;;
13014;SDS011;6573;57.696;11.950;2023-02-28T09:29:07;16.83;;;10.17;;
13014;SDS011;6573;57.696;11.950;2023-02-28T09:31:37;15.23;;;10.53;;
13014;SDS011;6573;57.696;11.950;2023-02-28T09:34:05;13.97;;;9.57;;
13014;SDS011;6573;57.696;11.950;2023-02-28T09:36:35;14.80;;;10.27;;
13014;SDS011;6573;57.696;11.950;2023-02-28T09:39:11;14.80;;;10.83;;
13014;SDS011;6573;57.696;11.950;2023-02-28T09:41:42;14.67;;;10.60;;
13014;SDS011;6573;57.696;11.950;2023-02-28T09:44:19;17.00;;;10.53;;
13014;SDS011;6573;57.696;11.950;2023-02-28T09:46:54;14.10;;;9.70;;
13014;SDS011;6573;57.696;11.950;2023-02-28T09:49:28;14.63;;;10.00;;
13014;SDS011;6573;57.696;11.950;2023-02-28T09:52:04;16.80;;;10.23;;
13014;SDS011;6573;57.696;11.950;2023-02-28T09:54:35;12.53;;;9.40;;
13014;SDS011;6573;57.696;11.950;2023-02-28T09:57:06;11.30;;;8.43;;
13014;SDS011;6573;57.696;11.950;2023-02-28T09:59:42;15.27;;;10.03;;
13014;SDS011;6573;57.696;11.950;2023-02-28T10:02:38;13.40;;;9.73;;
13014;SDS011;6573;57.696;11.950;2023-02-28T10:05:17;12.37;;;9.80;;
13014;SDS011;6573;57.696;11.950;2023-02-28T10:07:55;13.57;;;9.67;;
13014;SDS011;6573;57.696;11.950;2023-02-28T10:10:33;15.63;;;10.20;;
13014;SDS011;6573;57.696;11.950;2023-02-28T10:13:10;14.53;;;9.37;;
13014;SDS011;6573;57.696;11.950;2023-02-28T10:15:43;13.40;;;10.40;;
13014;SDS011;6573;57.696;11.950;2023-02-28T10:18:14;16.17;;;10.50;;
13014;SDS011;6573;57.696;11.950;2023-02-28T10:20:48;17.40;;;11.30;;
13014;SDS011;6573;57.696;11.950;2023-02-28T10:23:21;16.87;;;11.77;;
13014;SDS011;6573;57.696;11.950;2023-02-28T10:25:53;11.00;;;9.77;;
13014;SDS011;6573;57.696;11.950;2023-02-28T10:28:25;11.00;;;9.10;;
13014;SDS011;6573;57.696;11.950;2023-02-28T10:30:57;12.57;;;9.50;;
13014;SDS011;6573;57.696;11.950;2023-02-28T10:33:28;14.80;;;9.50;;
13014;SDS011;6573;57.696;11.950;2023-02-28T10:35:57;12.63;;;9.77;;
13014;SDS011;6573;57.696;11.950;2023-02-28T10:38:31;11.93;;;9.33;;
13014;SDS011;6573;57.696;11.950;2023-02-28T10:41:03;11.60;;;9.23;;
13014;SDS011;6573;57.696;11.950;2023-02-28T10:43:34;13.50;;;10.13;;
13014;SDS011;6573;57.696;11.950;2023-02-28T10:46:04;13.10;;;9.90;;
13014;SDS011;6573;57.696;11.950;2023-02-28T10:48:42;12.60;;;9.23;;
13014;SDS011;6573;57.696;11.950;2023-02-28T10:51:15;11.60;;;9.40;;
13014;SDS011;6573;57.696;11.950;2023-02-28T10:53:51;11.40;;;9.03;;
13014;SDS011;6573;57.696;11.950;2023-02-28T10:56:28;13.07;;;9.20;;
13014;SDS011;6573;57.696;11.950;2023-02-28T10:58:58;12.00;;;8.57;;
13014;SDS011;6573;57.696;11.950;2023-02-28T11:01:35;13.30;;;9.37;;
13014;SDS011;6573;57.696;11.950;2023-02-28T11:04:16;11.70;;;9.07;;
13014;SDS011;6573;57.696;11.950;2023-02-28T11:06:51;8.97;;;8.03;;
13014;SDS011;6573;57.696;11.950;2023-02-28T11:09:28;11.20;;;8.80;;
13014;SDS011;6573;57.696;11.950;2023-02-28T11:11:59;12.83;;;8.93;;
13014;SDS011;6573;57.696;11.950;2023-02-28T11:14:29;10.80;;;8.30;;
13014;SDS011;6573;57.696;11.950;2023-02-28T11:17:02;10.53;;;8.97;;
13014;SDS011;6573;57.696;11.950;2023-02-28T11:19:44;11.13;;;8.90;;
13014;SDS011;6573;57.696;11.950;2023-02-28T11:22:16;11.03;;;8.10;;
13014;SDS011;6573;57.696;11.950;2023-02-28T11:24:49;11.60;;;8.00;;
13014;SDS011;6573;57.696;11.950;2023-02-28T11:27:25;11.83;;;7.60;;
13014;SDS011;6573;57.696;11.950;2023-02-28T11:30:22;9.53;;;7.67;;
13014;SDS011;6573;57.696;11.950;2023-02-28T11:32:59;9.83;;;8.10;;
13014;SDS011;6573;57.696;11.950;2023-02-28T11:35:30;12.00;;;8.40;;
13014;SDS011;6573;57.696;11.950;2023-02-28T11:38:04;9.87;;;7.23;;
13014;SDS011;6573;57.696;11.950;2023-02-28T11:40:41;9.63;;;7.60;;
13014;SDS011;6573;57.696;11.950;2023-02-28T11:43:20;13.40;;;7.90;;
13014;SDS011;6573;57.696;11.950;2023-02-28T11:46:04;10.00;;;7.97;;
13014;SDS011;6573;57.696;11.950;2023-02-28T11:48:49;12.13;;;7.63;;
13014;SDS011;6573;57.696;11.950;2023-02-28T11:51:29;13.63;;;8.33;;
13014;SDS011;6573;57.696;11.950;2023-02-28T11:57:09;12.43;;;6.97;;
13014;SDS011;6573;57.696;11.950;2023-02-28T11:59:54;10.60;;;6.87;;
13014;SDS011;6573;57.696;11.950;2023-02-28T12:02:31;10.07;;;6.47;;
13014;SDS011;6573;57.696;11.950;2023-02-28T12:05:20;11.67;;;6.57;;
13014;SDS011;6573;57.696;11.950;2023-02-28T12:07:59;9.93;;;6.03;;
13014;SDS011;6573;57.696;11.950;2023-02-28T12:10:50;8.77;;;5.97;;
13014;SDS011;6573;57.696;11.950;2023-02-28T12:13:35;10.37;;;6.20;;
13014;SDS011;6573;57.696;11.950;2023-02-28T12:16:19;14.10;;;7.13;;
13014;SDS011;6573;57.696;11.950;2023-02-28T12:19:00;9.27;;;6.93;;
13014;SDS011;6573;57.696;11.950;2023-02-28T12:21:39;11.53;;;6.63;;
13014;SDS011;6573;57.696;11.950;2023-02-28T12:24:39;9.67;;;6.80;;
13014;SDS011;6573;57.696;11.950;2023-02-28T12:27:24;22.87;;;8.23;;
13014;SDS011;6573;57.696;11.950;2023-02-28T12:30:00;14.23;;;7.67;;
13014;SDS011;6573;57.696;11.950;2023-02-28T12:32:34;11.17;;;8.10;;
13014;SDS011;6573;57.696;11.950;2023-02-28T12:35:06;12.20;;;8.10;;
13014;SDS011;6573;57.696;11.950;2023-02-28T12:37:41;17.33;;;9.30;;
13014;SDS011;6573;57.696;11.950;2023-02-28T12:40:15;14.40;;;8.33;;
13014;SDS011;6573;57.696;11.950;2023-02-28T12:42:49;12.37;;;7.67;;
13014;SDS011;6573;57.696;11.950;2023-02-28T12:45:22;15.93;;;8.10;;
13014;SDS011;6573;57.696;11.950;2023-02-28T12:47:52;11.40;;;7.73;;
13014;SDS011;6573;57.696;11.950;2023-02-28T12:50:24;11.77;;;7.37;;
13014;SDS011;6573;57.696;11.950;2023-02-28T12:52:58;10.73;;;7.83;;
13014;SDS011;6573;57.696;11.950;2023-02-28T12:55:33;13.57;;;7.70;;
13014;SDS011;6573;57.696;11.950;2023-02-28T12:58:08;16.33;;;7.70;;
13014;SDS011;6573;57.696;11.950;2023-02-28T13:00:46;9.40;;;6.70;;
13014;SDS011;6573;57.696;11.950;2023-02-28T13:03:45;13.83;;;7.47;;
13014;SDS011;6573;57.696;11.950;2023-02-28T13:06:33;14.77;;;7.03;;
13014;SDS011;6573;57.696;11.950;2023-02-28T13:09:18;10.13;;;6.27;;
13014;SDS011;6573;57.696;11.950;2023-02-28T13:11:48;9.53;;;5.90;;
13014;SDS011;6573;57.696;11.950;2023-02-28T13:14:19;16.13;;;6.30;;
13014;SDS011;6573;57.696;11.950;2023-02-28T13:16:54;12.33;;;5.77;;
13014;SDS011;6573;57.696;11.950;2023-02-28T13:19:27;14.67;;;5.37;;
13014;SDS011;6573;57.696;11.950;2023-02-28T13:21:57;16.93;;;5.20;;
13014;SDS011;6573;57.696;11.950;2023-02-28T13:24:37;16.30;;;5.80;;
13014;SDS011;6573;57.696;11.950;2023-02-28T13:27:19;12.30;;;4.73;;
13014;SDS011;6573;57.696;11.950;2023-02-28T13:29:52;12.33;;;4.67;;
13014;SDS011;6573;57.696;11.950;2023-02-28T13:35:14;8.73;;;4.20;;
13014;SDS011;6573;57.696;11.950;2023-02-28T13:38:21;12.93;;;4.57;;
13014;SDS011;6573;57.696;11.950;2023-02-28T13:40:52;13.03;;;4.97;;
13014;SDS011;6573;57.696;11.950;2023-02-28T13:43:21;9.97;;;4.50;;
13014;SDS011;6573;57.696;11.950;2023-02-28T13:46:27;10.80;;;4.33;;
13014;SDS011;6573;57.696;11.950;2023-02-28T13:48:58;16.13;;;4.60;;
13014;SDS011;6573;57.696;11.950;2023-02-28T13:51:47;8.63;;;4.40;;
13014;SDS011;6573;57.696;11.950;2023-02-28T13:54:29;17.53;;;4.63;;
13014;SDS011;6573;57.696;11.950;2023-02-28T13:57:12;14.80;;;4.77;;
13014;SDS011;6573;57.696;11.950;2023-02-28T13:59:54;14.17;;;4.50;;
13014;SDS011;6573;57.696;11.950;2023-02-28T14:02:47;13.97;;;4.00;;
13014;SDS011;6573;57.696;11.950;2023-02-28T14:05:45;9.03;;;4.30;;
13014;SDS011;6573;57.696;11.950;2023-02-28T14:08:15;9.90;;;4.20;;
13014;SDS011;6573;57.696;11.950;2023-02-28T14:10:49;11.20;;;4.70;;
13014;SDS011;6573;57.696;11.950;2023-02-28T14:13:42;6.70;;;4.10;;
13014;SDS011;6573;57.696;11.950;2023-02-28T14:16:13;7.10;;;3.77;;
13014;SDS011;6573;57.696;11.950;2023-02-28T14:18:47;10.30;;;3.87;;
13014;SDS011;6573;57.696;11.950;2023-02-28T14:21:21;6.70;;;3.27;;
13014;SDS011;6573;57.696;11.950;2023-02-28T14:27:01;6.40;;;3.83;;
13014;SDS011;6573;57.696;11.950;2023-02-28T14:30:03;7.27;;;3.27;;
13014;SDS011;6573;57.696;11.950;2023-02-28T14:32:51;5.13;;;2.63;;
13014;SDS011;6573;57.696;11.950;2023-02-28T14:35:35;3.80;;;3.20;;
13014;SDS011;6573;57.696;11.950;2023-02-28T14:38:18;5.17;;;2.90;;
13014;SDS011;6573;57.696;11.950;2023-02-28T14:40:51;6.73;;;3.63;;
13014;SDS011;6573;57.696;11.950;2023-02-28T14:43:23;6.20;;;3.20;;
13014;SDS011;6573;57.696;11.950;2023-02-28T14:45:54;7.00;;;3.70;;
13014;SDS011;6573;57.696;11.950;2023-02-28T14:48:25;7.63;;;4.10;;
13014;SDS011;6573;57.696;11.950;2023-02-28T14:50:55;7.77;;;4.00;;
13014;SDS011;6573;57.696;11.950;2023-02-28T14:53:27;4.87;;;3.93;;
13014;SDS011;6573;57.696;11.950;2023-02-28T14:55:59;5.63;;;3.60;;
13014;SDS011;6573;57.696;11.950;2023-02-28T14:58:53;7.10;;;3.40;;
13014;SDS011;6573;57.696;11.950;2023-02-28T15:01:24;7.10;;;3.93;;
13014;SDS011;6573;57.696;11.950;2023-02-28T15:03:56;6.60;;;3.30;;
13014;SDS011;6573;57.696;11.950;2023-02-28T15:06:28;6.63;;;3.10;;
13014;SDS011;6573;57.696;11.950;2023-02-28T15:09:09;5.73;;;3.23;;
13014;SDS011;6573;57.696;11.950;2023-02-28T15:11:44;10.23;;;3.57;;
13014;SDS011;6573;57.696;11.950;2023-02-28T15:14:20;5.50;;;3.37;;
13014;SDS011;6573;57.696;11.950;2023-02-28T15:16:51;7.97;;;3.90;;
13014;SDS011;6573;57.696;11.950;2023-02-28T15:19:24;8.90;;;3.60;;
13014;SDS011;6573;57.696;11.950;2023-02-28T15:22:02;7.87;;;3.37;;
13014;SDS011;6573;57.696;11.950;2023-02-28T15:24:37;8.40;;;4.10;;
13014;SDS011;6573;57.696;11.950;2023-02-28T15:27:11;8.23;;;3.73;;
13014;SDS011;6573;57.696;11.950;2023-02-28T15:29:46;12.17;;;3.77;;